Time;durP1;ratioP1;P1;durP2;ratioP2;P2;SDS_P1;SDS_P2;PMS_P1;PMS_P2;Temp;Humidity;BMP_temperature;BMP_pressure;BME280_temperature;BME280_humidity;BME280_pressure;Samples;Min_cycle;Max_cycle;Signal;HPM_P1;HPM_P2
2024/01/13 00:00:05;;;;;;;;;;;-0.90;99.90;;;-1.63;100.00;98972.28;5042201;28;1449;-67
2024/01/13 00:02:32;;;;;;;;;;;-0.90;99.90;;;-1.61;100.00;98974.88;5043619;28;1150;-69
2024/01/13 00:04:59;;;;;;;;;;;-1.00;99.90;;;-1.74;100.00;98971.09;5025627;28;1228;-68
2024/01/13 00:07:27;;;;;;;;;;;-1.00;99.90;;;-1.73;100.00;98971.16;5043513;28;1806;-68
2024/01/13 00:09:54;;;;;;;;;;;-1.00;99.90;;;-1.82;100.00;98967.50;5041990;28;2614;-69
2024/01/13 00:12:21;;;;;;;;;;;-1.00;99.90;;;-1.80;100.00;98961.63;5026211;28;1428;-67
2024/01/13 00:14:48;;;;;;;;;;;-0.90;99.90;;;-1.69;100.00;98970.44;5043766;28;1446;-68
2024/01/13 00:17:15;;;;;;;;;;;-0.90;99.90;;;-1.66;100.00;98961.16;5042090;28;1588;-68
2024/01/13 00:19:42;;;;;;;;;;;-0.90;99.90;;;-1.71;100.00;98964.44;5044623;28;1241;-69
2024/01/13 00:22:09;;;;;;;;;;;-0.90;99.90;;;-1.70;100.00;98955.09;5042290;28;1332;-68
2024/01/13 00:24:35;;;;;;;;;;;-0.90;99.90;;;-1.76;100.00;98958.31;5022330;28;3255;-68
2024/01/13 00:27:02;;;;;;;;;;;-0.80;99.90;;;-1.74;100.00;98955.84;5024052;28;1394;-68
2024/01/13 00:29:30;;;;;;;;;;;-0.90;99.90;;;-1.70;100.00;98948.31;5022559;28;1906;-68
2024/01/13 00:31:57;;;;;;;;;;;-0.90;99.90;;;-1.91;100.00;98952.81;5022979;28;1259;-68
2024/01/13 00:34:24;;;;;;;;;;;-0.90;99.90;;;-1.92;100.00;98953.63;5042341;28;1620;-69
2024/01/13 00:36:51;;;;;;;;;;;-0.80;99.90;;;-1.85;100.00;98944.47;5041585;28;1235;-68
2024/01/13 00:39:18;;;;;;;;;;;-0.80;99.90;;;-1.84;100.00;98949.63;5043474;28;2063;-67
2024/01/13 00:41:45;;;;;;;;;;;-0.70;99.90;;;-1.73;100.00;98943.16;5041392;28;1460;-68
2024/01/13 00:44:12;;;;;;;;;;;-0.70;99.90;;;-1.65;100.00;98939.97;5039932;28;1396;-68
2024/01/13 00:46:39;;;;;;;;;;;-0.60;99.90;;;-1.66;100.00;98935.72;5041400;28;1425;-67
2024/01/13 00:49:05;;;;;;;;;;;-0.60;99.90;;;-1.56;100.00;98932.56;5040145;28;1994;-66
2024/01/13 00:51:33;;;;;;;;;;;-0.70;99.90;;;-1.58;100.00;98926.56;5042483;28;2681;-67
2024/01/13 00:54:00;;;;;;;;;;;-0.80;99.90;;;-1.71;100.00;98925.38;5042761;28;2599;-68
2024/01/13 00:56:27;;;;;;;;;;;-0.80;99.90;;;-1.57;100.00;98926.63;5041461;28;1416;-68
2024/01/13 00:58:54;;;;;;;;;;;-0.70;99.90;;;-1.78;100.00;98921.81;5041727;28;1380;-68
2024/01/13 01:01:21;;;;;;;;;;;-0.70;99.90;;;-1.98;100.00;98928.03;5023284;28;1330;-68
2024/01/13 01:03:48;;;;;;;;;;;-0.60;99.90;;;-1.78;100.00;98926.00;5043297;28;1420;-69
2024/01/13 01:06:15;;;;;;;;;;;-0.70;99.90;;;-1.67;100.00;98921.22;5041758;28;2816;-69
2024/01/13 01:08:42;;;;;;;;;;;-0.80;99.90;;;-1.67;100.00;98921.22;5025707;28;2465;-68
2024/01/13 01:11:10;;;;;;;;;;;-0.80;99.90;;;-1.66;100.00;98918.75;5025022;28;1967;-68
2024/01/13 01:13:38;;;;;;;;;;;-0.80;99.90;;;-1.65;100.00;98917.91;5041930;28;1430;-66
2024/01/13 01:16:06;;;;;;;;;;;-1.00;99.90;;;-1.93;100.00;98922.22;5009356;28;1380;-66
2024/01/13 01:18:34;;;;;;;;;;;-1.00;99.90;;;-1.91;100.00;98925.69;5042671;28;1402;-68
2024/01/13 01:21:12;;;;;;;;;;;-0.90;99.90;;;-1.84;100.00;98923.31;5025739;28;1398;-70
2024/01/13 01:23:41;;;;;;;;;;;-0.80;99.90;;;-1.67;100.00;98926.31;5042987;28;2109;-68
2024/01/13 01:26:08;;;;;;;;;;;-0.80;99.90;;;-1.63;100.00;98917.97;5020717;28;1394;-68
2024/01/13 01:28:34;;;;;;;;;;;-0.80;99.90;;;-1.62;100.00;98910.38;5042297;28;1401;-68
2024/01/13 01:31:06;;;;;;;;;;;-0.90;99.90;;;-1.74;100.00;98904.94;5041778;28;2285;-69
2024/01/13 01:33:36;;;;;;;;;;;-0.90;99.90;;;-1.96;100.00;98904.34;5023622;28;1466;-69
2024/01/13 01:36:04;;;;;;;;;;;-0.80;99.90;;;-1.81;100.00;98905.59;5022784;28;2068;-67
2024/01/13 01:38:31;;;;;;;;;;;-0.80;99.90;;;-1.71;100.00;98907.53;5022851;28;1347;-68
2024/01/13 01:41:11;;;;;;;;;;;-0.70;99.90;;;-1.58;100.00;98901.97;5042938;28;1357;-68
2024/01/13 01:43:38;;;;;;;;;;;-0.70;99.90;;;-1.55;100.00;98899.53;5034820;28;1428;-66
2024/01/13 01:46:05;;;;;;;;;;;-0.70;99.90;;;-1.60;100.00;98898.53;5033474;28;3782;-69
2024/01/13 01:48:35;;;;;;;;;;;-0.80;99.90;;;-1.69;100.00;98896.63;5017141;28;1434;-70
2024/01/13 01:51:09;;;;;;;;;;;-0.80;99.90;;;-1.73;100.00;98893.94;5017683;28;2001;-66
2024/01/13 01:53:37;;;;;;;;;;;-0.70;99.90;;;-1.57;100.00;98895.22;5007178;28;1422;-68
2024/01/13 01:56:08;;;;;;;;;;;-0.70;99.90;;;-1.44;100.00;98883.66;5026870;28;1152;-69
2024/01/13 01:58:36;;;;;;;;;;;-0.70;99.90;;;-1.42;100.00;98871.81;5025125;28;1422;-68
2024/01/13 02:01:05;;;;;;;;;;;-0.70;99.90;;;-1.33;100.00;98875.47;5024040;28;2592;-68
2024/01/13 02:03:33;;;;;;;;;;;-0.60;99.90;;;-1.44;100.00;98874.31;5025930;28;2042;-68
2024/01/13 02:06:02;;;;;;;;;;;-0.60;99.90;;;-1.53;100.00;98874.97;5040861;28;2570;-68
2024/01/13 02:08:29;;;;;;;;;;;-0.60;99.90;;;-1.55;100.00;98883.38;5028580;28;1428;-68
2024/01/13 02:11:06;;;;;;;;;;;-0.60;99.90;;;-1.55;100.00;98879.16;5026783;28;1907;-69
2024/01/13 02:13:33;;;;;;;;;;;-0.60;99.90;;;-1.62;100.00;98868.75;5025459;28;1438;-68
2024/01/13 02:16:00;;;;;;;;;;;-0.60;99.90;;;-1.56;100.00;98869.78;5027103;28;1345;-68
2024/01/13 02:18:27;;;;;;;;;;;-0.60;99.90;;;-1.64;100.00;98873.81;5026646;28;1445;-70
2024/01/13 02:21:05;;;;;;;;;;;-0.60;99.90;;;-1.52;100.00;98873.28;5045179;28;2237;-69
2024/01/13 02:23:34;;;;;;;;;;;-0.50;99.90;;;-1.40;100.00;98873.59;5012306;28;1464;-68
2024/01/13 02:26:01;;;;;;;;;;;-0.40;99.90;;;-1.39;100.00;98871.91;5045480;28;1337;-69
2024/01/13 02:28:28;;;;;;;;;;;-0.40;99.90;;;-1.35;100.00;98861.81;5027798;28;1288;-70
2024/01/13 02:31:14;;;;;;;;;;;-0.30;99.90;;;-1.54;100.00;98859.66;5048298;28;3203;-68
2024/01/13 02:33:41;;;;;;;;;;;-0.40;99.90;;;-1.60;100.00;98851.84;5028441;28;2651;-68
2024/01/13 02:36:08;;;;;;;;;;;-0.40;99.90;;;-1.59;100.00;98854.44;5047335;28;1404;-68
2024/01/13 02:38:35;;;;;;;;;;;-0.40;99.90;;;-1.64;100.00;98850.03;5030859;28;1406;-68
2024/01/13 02:41:05;;;;;;;;;;;-0.50;99.90;;;-1.49;100.00;98840.25;5046522;28;1344;-68
2024/01/13 02:43:34;;;;;;;;;;;-0.50;99.90;;;-1.39;100.00;98834.56;5045892;28;1920;-70
2024/01/13 02:46:00;;;;;;;;;;;-0.50;99.90;;;-1.29;100.00;98825.47;5011005;28;1653;-67
2024/01/13 02:48:30;;;;;;;;;;;-0.40;99.90;;;-1.29;100.00;98817.81;5045433;28;2506;-68
2024/01/13 02:51:06;;;;;;;;;;;-0.30;99.90;;;-1.21;100.00;98811.22;5027517;28;1975;-69
2024/01/13 02:53:33;;;;;;;;;;;-0.20;99.90;;;-1.28;100.00;98819.53;5028551;28;1423;-68
2024/01/13 02:56:00;;;;;;;;;;;-0.20;99.90;;;-1.38;100.00;98818.47;5028085;28;1443;-69
2024/01/13 02:58:27;;;;;;;;;;;-0.20;99.90;;;-1.37;100.00;98817.66;5029341;28;1830;-68
2024/01/13 03:01:08;;;;;;;;;;;-0.30;99.90;;;-1.30;100.00;98814.44;5046196;28;1464;-69
2024/01/13 03:03:36;;;;;;;;;;;-0.30;99.90;;;-1.21;100.00;98808.66;5049724;28;1767;-70
2024/01/13 03:06:05;;;;;;;;;;;-0.30;99.90;;;-1.20;100.00;98810.41;5041085;28;1682;-69
2024/01/13 03:08:33;;;;;;;;;;;-0.30;99.90;;;-1.20;100.00;98820.59;5037427;28;1525;-68
2024/01/13 03:11:11;;;;;;;;;;;-0.20;99.90;;;-1.31;100.00;98799.94;5049402;28;1910;-68
2024/01/13 03:13:40;;;;;;;;;;;-0.20;99.90;;;-1.54;100.00;98806.19;5033365;28;3182;-69
2024/01/13 03:16:07;;;;;;;;;;;-0.20;99.90;;;-1.32;100.00;98800.78;5047165;28;1447;-69
2024/01/13 03:18:37;;;;;;;;;;;-0.20;99.90;;;-1.40;100.00;98806.50;5049320;28;1982;-69
2024/01/13 03:21:09;;;;;;;;;;;-0.20;99.90;;;-1.36;100.00;98805.78;5047052;28;1447;-69
2024/01/13 03:23:37;;;;;;;;;;;-0.30;99.90;;;-1.62;100.00;98803.44;5029647;28;1376;-68
2024/01/13 03:26:05;;;;;;;;;;;-0.30;99.90;;;-1.72;100.00;98798.94;5028641;28;1960;-67
2024/01/13 03:28:31;;;;;;;;;;;-0.40;99.90;;;-1.67;100.00;98799.03;5026942;28;1522;-69
2024/01/13 03:31:08;;;;;;;;;;;-0.50;99.90;;;-1.33;100.00;98805.84;5048913;28;1898;-69
2024/01/13 03:33:36;;;;;;;;;;;-0.50;99.90;;;-1.36;100.00;98803.22;5013019;28;1363;-70
2024/01/13 03:36:03;;;;;;;;;;;-0.40;99.90;;;-1.37;100.00;98798.94;5048682;28;1227;-68
2024/01/13 03:38:30;;;;;;;;;;;-0.40;99.90;;;-1.18;100.00;98796.03;5051246;28;1061;-69
2024/01/13 03:41:08;;;;;;;;;;;-0.30;99.90;;;-1.26;100.00;98787.31;5049747;28;2471;-69
2024/01/13 03:43:34;;;;;;;;;;;-0.30;99.90;;;-1.34;100.00;98792.25;5052049;28;1360;-69
2024/01/13 03:46:02;;;;;;;;;;;-0.20;99.90;;;-1.35;100.00;98787.09;5030760;28;1491;-68
2024/01/13 03:48:29;;;;;;;;;;;-0.20;99.90;;;-1.40;100.00;98779.34;5013879;28;1365;-68
2024/01/13 03:50:56;;;;;;;;;;;-0.20;99.90;;;-1.40;100.00;98775.94;5048837;28;1938;-70
2024/01/13 03:53:23;;;;;;;;;;;-0.30;99.90;;;-1.59;100.00;98769.56;5048921;28;1364;-69
2024/01/13 03:55:50;;;;;;;;;;;-0.30;99.90;;;-1.70;100.00;98767.59;5031656;28;1279;-69
2024/01/13 03:58:17;;;;;;;;;;;-0.30;99.90;;;-1.59;100.00;98775.50;5047358;28;3698;-68
2024/01/13 04:00:44;;;;;;;;;;;-0.40;99.90;;;-1.40;100.00;98769.16;5029189;28;1268;-68
2024/01/13 04:03:11;;;;;;;;;;;-0.40;99.90;;;-1.37;100.00;98771.81;5049999;28;1299;-69
2024/01/13 04:05:38;;;;;;;;;;;-0.40;99.90;;;-1.33;100.00;98771.03;5049806;28;2455;-68
2024/01/13 04:08:05;;;;;;;;;;;-0.30;99.90;;;-1.53;100.00;98774.78;5030548;28;1309;-69
2024/01/13 04:10:35;;;;;;;;;;;-0.30;99.90;;;-1.43;100.00;98775.88;5047332;28;2673;-66
2024/01/13 04:13:02;;;;;;;;;;;-0.40;99.90;;;-1.35;100.00;98771.81;5049851;28;1298;-68
2024/01/13 04:15:28;;;;;;;;;;;-0.40;99.90;;;-1.32;100.00;98774.47;5052104;28;1592;-67
2024/01/13 04:17:55;;;;;;;;;;;-0.30;99.90;;;-1.30;100.00;98781.31;5046038;28;1324;-68
2024/01/13 04:20:22;;;;;;;;;;;-0.30;99.90;;;-1.51;100.00;98774.00;5047617;28;1274;-68
2024/01/13 04:22:49;;;;;;;;;;;-0.30;99.90;;;-1.44;100.00;98779.25;5050101;28;2077;-68
2024/01/13 04:25:16;;;;;;;;;;;-0.30;99.90;;;-1.38;100.00;98774.31;5048549;28;1395;-68
2024/01/13 04:27:43;;;;;;;;;;;-0.30;99.90;;;-1.28;100.00;98773.69;5049354;28;1322;-69
2024/01/13 04:30:10;;;;;;;;;;;-0.20;99.90;;;-1.57;100.00;98780.66;5034707;28;1268;-68
2024/01/13 04:32:38;;;;;;;;;;;-0.20;99.90;;;-1.64;100.00;98787.25;5048297;28;1902;-68
2024/01/13 04:35:05;;;;;;;;;;;-0.30;99.90;;;-1.43;100.00;98776.75;5051479;28;1380;-69
2024/01/13 04:37:32;;;;;;;;;;;-0.40;99.90;;;-1.53;100.00;98780.75;5031943;28;3206;-65
2024/01/13 04:39:59;;;;;;;;;;;-0.40;99.90;;;-1.29;100.00;98777.94;5017416;28;1296;-70
2024/01/13 04:42:26;;;;;;;;;;;-0.40;99.90;;;-1.32;100.00;98780.41;5032505;28;1290;-69
2024/01/13 04:44:53;;;;;;;;;;;-0.40;99.90;;;-1.42;100.00;98768.25;5030389;28;1386;-69
2024/01/13 04:47:19;;;;;;;;;;;-0.30;99.90;;;-1.40;100.00;98768.31;5050167;28;1288;-68
2024/01/13 04:49:46;;;;;;;;;;;-0.30;99.90;;;-1.42;100.00;98765.72;5050620;28;1905;-68
2024/01/13 04:52:13;;;;;;;;;;;-0.30;99.90;;;-1.38;100.00;98767.53;5050084;28;2051;-69
2024/01/13 04:54:40;;;;;;;;;;;-0.30;99.90;;;-1.25;100.00;98766.13;5034475;28;1300;-68
2024/01/13 04:57:06;;;;;;;;;;;-0.30;99.90;;;-1.25;100.00;98766.13;5028975;28;1495;-68
2024/01/13 04:59:33;;;;;;;;;;;-0.30;99.90;;;-1.27;100.00;98755.06;5049516;28;1199;-69
2024/01/13 05:02:00;;;;;;;;;;;-0.20;99.90;;;-1.44;100.00;98751.22;5049348;28;1397;-68
2024/01/13 05:04:27;;;;;;;;;;;-0.30;99.90;;;-1.55;100.00;98753.50;5049371;28;1385;-69
2024/01/13 05:06:54;;;;;;;;;;;-0.30;99.90;;;-1.50;100.00;98755.34;5048892;28;2024;-69
2024/01/13 05:09:21;;;;;;;;;;;-0.30;99.90;;;-1.28;100.00;98755.84;5049435;28;1243;-69
2024/01/13 05:11:52;;;;;;;;;;;-0.30;99.90;;;-1.18;100.00;98744.22;5047314;28;1930;-66
2024/01/13 05:14:19;;;;;;;;;;;-0.30;99.90;;;-1.26;100.00;98737.22;5029913;28;1442;-69
2024/01/13 05:16:46;;;;;;;;;;;-0.30;99.90;;;-1.23;100.00;98740.69;5047987;28;1216;-68
2024/01/13 05:19:13;;;;;;;;;;;-0.30;99.90;;;-1.26;100.00;98738.91;5048558;28;3166;-69
2024/01/13 05:21:40;;;;;;;;;;;-0.30;99.90;;;-1.19;100.00;98737.38;5049639;28;1311;-69
2024/01/13 05:24:07;;;;;;;;;;;-0.20;99.90;;;-1.45;100.00;98734.25;5048460;28;1378;-68
2024/01/13 05:26:34;;;;;;;;;;;-0.20;99.90;;;-1.27;100.00;98732.13;5048649;28;1306;-68
2024/01/13 05:29:00;;;;;;;;;;;-0.30;99.90;;;-1.30;100.00;98732.91;5032278;28;1402;-67
2024/01/13 05:31:27;;;;;;;;;;;-0.30;99.90;;;-1.38;100.00;98726.78;5052951;28;1898;-68
2024/01/13 05:33:55;;;;;;;;;;;-0.30;99.90;;;-1.40;100.00;98723.31;5048479;28;2173;-68
2024/01/13 05:36:22;;;;;;;;;;;-0.30;99.90;;;-1.51;100.00;98724.75;5052017;28;1345;-68
2024/01/13 05:38:49;;;;;;;;;;;-0.40;99.90;;;-1.65;100.00;98721.03;5051144;28;1337;-68
2024/01/13 05:41:16;;;;;;;;;;;-0.40;99.90;;;-1.61;100.00;98712.66;5052564;28;2638;-68
2024/01/13 05:43:43;;;;;;;;;;;-0.40;99.90;;;-1.53;100.00;98712.00;5032693;28;1306;-69
2024/01/13 05:46:11;;;;;;;;;;;-0.40;99.90;;;-1.47;100.00;98703.63;5052145;28;1741;-68
2024/01/13 05:48:38;;;;;;;;;;;-0.40;99.90;;;-1.50;100.00;98706.13;5042288;28;1482;-69
2024/01/13 05:51:07;;;;;;;;;;;-0.40;99.90;;;-1.36;100.00;98699.66;5049757;28;1946;-68
2024/01/13 05:53:34;;;;;;;;;;;-0.40;99.90;;;-1.45;100.00;98699.44;5033627;28;1314;-69
2024/01/13 05:56:01;;;;;;;;;;;-0.40;99.90;;;-1.35;100.00;98705.59;5033838;28;2307;-69
2024/01/13 05:58:28;;;;;;;;;;;-0.30;99.90;;;-1.47;100.00;98704.50;5051228;28;1596;-70
2024/01/13 06:00:54;;;;;;;;;;;-0.30;99.90;;;-1.62;100.00;98704.16;5032338;28;1357;-68
2024/01/13 06:03:21;;;;;;;;;;;-0.30;99.90;;;-1.54;100.00;98696.69;5047756;28;1328;-69
2024/01/13 06:05:48;;;;;;;;;;;-0.40;99.90;;;-1.52;100.00;98692.50;5049828;28;3221;-68
2024/01/13 06:08:15;;;;;;;;;;;-0.30;99.90;;;-1.51;100.00;98692.50;5050155;28;2594;-69
2024/01/13 06:10:42;;;;;;;;;;;-0.30;99.90;;;-1.68;100.00;98696.38;5031377;28;1945;-69
2024/01/13 06:13:09;;;;;;;;;;;-0.40;99.90;;;-1.45;100.00;98698.59;5027927;28;1977;-67
2024/01/13 06:15:37;;;;;;;;;;;-0.30;99.90;;;-1.41;100.00;98685.13;5030906;28;1604;-69
2024/01/13 06:18:03;;;;;;;;;;;-0.30;99.90;;;-1.59;100.00;98704.22;5051738;28;1327;-68
2024/01/13 06:20:31;;;;;;;;;;;-0.40;99.90;;;-1.61;100.00;98689.72;5050329;28;1239;-68
2024/01/13 06:22:58;;;;;;;;;;;-0.50;99.90;;;-1.62;100.00;98688.88;5031715;28;1432;-68
2024/01/13 06:25:25;;;;;;;;;;;-0.60;99.90;;;-1.61;100.00;98690.59;5029368;28;1383;-69
2024/01/13 06:27:51;;;;;;;;;;;-0.70;99.90;;;-1.60;100.00;98689.75;5054088;28;1187;-70
2024/01/13 06:30:18;;;;;;;;;;;-0.70;99.90;;;-1.59;100.00;98683.84;5050347;28;1421;-69
2024/01/13 06:32:48;;;;;;;;;;;-0.70;99.90;;;-1.77;100.00;98681.72;5050183;28;1898;-68
2024/01/13 06:35:15;;;;;;;;;;;-0.70;99.90;;;-1.67;100.00;98677.72;5053709;28;1316;-68
2024/01/13 06:37:42;;;;;;;;;;;-0.60;99.90;;;-1.79;100.00;98674.88;5050841;28;2043;-69
2024/01/13 06:40:09;;;;;;;;;;;-0.60;99.90;;;-1.78;100.00;98672.38;5051513;28;1200;-69
2024/01/13 06:42:36;;;;;;;;;;;-0.60;99.90;;;-1.63;100.00;98668.47;5050186;28;1393;-69
2024/01/13 06:45:03;;;;;;;;;;;-0.50;99.90;;;-1.52;100.00;98661.94;5048139;28;2048;-68
2024/01/13 06:47:30;;;;;;;;;;;-0.50;99.90;;;-1.58;100.00;98656.69;5047998;28;1338;-69
2024/01/13 06:49:57;;;;;;;;;;;-0.60;99.90;;;-1.57;100.00;98651.66;5049383;28;1592;-69
2024/01/13 06:52:24;;;;;;;;;;;-0.70;99.90;;;-1.92;100.00;98643.19;5047528;28;3735;-68
2024/01/13 06:54:50;;;;;;;;;;;-0.70;99.90;;;-1.84;100.00;98628.09;5031614;28;1357;-69
2024/01/13 06:57:17;;;;;;;;;;;-0.70;99.90;;;-1.88;100.00;98614.44;5049086;28;1243;-69
2024/01/13 06:59:44;;;;;;;;;;;-0.80;99.90;;;-1.87;100.00;98607.66;5032130;28;1533;-68
2024/01/13 07:02:12;;;;;;;;;;;-0.70;99.90;;;-1.88;100.00;98608.50;5032506;28;1301;-69
2024/01/13 07:04:40;;;;;;;;;;;-0.70;99.90;;;-1.77;100.00;98604.53;5050476;28;1961;-69
2024/01/13 07:07:08;;;;;;;;;;;-0.80;99.90;;;-1.83;100.00;98612.84;5029574;28;1443;-69
2024/01/13 07:09:34;;;;;;;;;;;-0.80;99.90;;;-1.80;100.00;98615.50;5049828;28;1416;-68
2024/01/13 07:12:01;;;;;;;;;;;-0.90;99.90;;;-1.84;100.00;98600.13;5048786;28;1910;-69
2024/01/13 07:14:30;;;;;;;;;;;-0.90;99.90;;;-1.77;100.00;98607.91;5048605;28;1983;-70
2024/01/13 07:16:57;;;;;;;;;;;-0.90;99.90;;;-1.75;100.00;98616.44;5047685;28;1376;-68
2024/01/13 07:19:24;;;;;;;;;;;-0.80;99.90;;;-1.79;100.00;98622.28;5050335;28;2150;-66
2024/01/13 07:21:51;;;;;;;;;;;-0.70;99.90;;;-1.81;100.00;98630.72;5047954;28;2669;-69
2024/01/13 07:24:17;;;;;;;;;;;-0.70;99.90;;;-1.78;100.00;98633.31;5050951;28;1412;-69
2024/01/13 07:26:45;;;;;;;;;;;-0.70;99.90;;;-1.66;100.00;98630.22;5046921;28;1326;-68
2024/01/13 07:29:11;;;;;;;;;;;-0.70;99.90;;;-1.65;100.00;98630.25;5048037;28;1384;-68
2024/01/13 07:31:38;;;;;;;;;;;-0.70;99.90;;;-1.96;100.00;98638.84;5047979;28;1987;-68
2024/01/13 07:34:05;;;;;;;;;;;-0.70;99.90;;;-1.78;100.00;98644.38;5049131;28;1300;-69
2024/01/13 07:36:36;;;;;;;;;;;-0.80;99.90;;;-1.82;100.00;98642.59;5048206;28;1363;-69
2024/01/13 07:39:03;;;;;;;;;;;-0.80;99.90;;;-2.01;100.00;98642.97;5051514;28;1277;-68
2024/01/13 07:41:30;;;;;;;;;;;-1.00;99.90;;;-2.08;100.00;98639.41;5051210;28;2991;-68
2024/01/13 07:43:57;;;;;;;;;;;-0.90;99.90;;;-2.17;100.00;98639.16;5048399;28;1398;-69
2024/01/13 07:46:23;;;;;;;;;;;-0.80;99.90;;;-2.03;100.00;98642.06;5049551;28;2583;-68
2024/01/13 07:48:50;;;;;;;;;;;-0.90;99.90;;;-1.97;100.00;98643.06;5053509;28;1270;-68
2024/01/13 07:51:17;;;;;;;;;;;-0.80;99.90;;;-1.79;100.00;98649.44;5050149;28;1302;-68
2024/01/13 07:53:57;;;;;;;;;;;-0.90;99.90;;;-1.91;100.00;98638.13;5048052;28;2475;-68
2024/01/13 07:56:24;;;;;;;;;;;-0.90;99.90;;;-1.92;100.00;98644.03;5016420;28;1311;-68
2024/01/13 07:58:51;;;;;;;;;;;-0.90;99.90;;;-1.79;100.00;98646.88;5032331;28;1231;-68
2024/01/13 08:01:18;;;;;;;;;;;-0.80;99.90;;;-1.91;100.00;98652.56;5031224;28;1173;-69
2024/01/13 08:03:58;;;;;;;;;;;-0.90;99.90;;;-2.01;100.00;98653.13;5049253;28;1538;-69
2024/01/13 08:06:25;;;;;;;;;;;-0.80;99.90;;;-2.00;100.00;98650.63;5049951;28;1226;-68
2024/01/13 08:08:52;;;;;;;;;;;-0.80;99.90;;;-1.89;100.00;98640.72;5049531;28;2003;-68
2024/01/13 08:11:19;;;;;;;;;;;-0.90;99.90;;;-1.90;100.00;98646.63;5047438;28;1266;-68
2024/01/13 08:14:03;;;;;;;;;;;-0.80;99.90;;;-1.83;100.00;98643.41;5045761;28;1555;-68
2024/01/13 08:16:31;;;;;;;;;;;-0.90;99.90;;;-1.79;100.00;98646.88;5049847;28;1232;-68
2024/01/13 08:19:00;;;;;;;;;;;-0.90;99.90;;;-1.85;100.00;98652.66;5050475;28;1314;-69
2024/01/13 08:21:28;;;;;;;;;;;-0.90;99.90;;;-1.91;100.00;98647.47;5049724;28;1184;-66
2024/01/13 08:24:05;;;;;;;;;;;-1.00;99.90;;;-1.90;100.00;98656.81;5028157;28;1533;-68
2024/01/13 08:26:33;;;;;;;;;;;-1.00;99.90;;;-1.95;100.00;98655.84;5033992;28;1180;-68
2024/01/13 08:29:00;;;;;;;;;;;-1.00;99.90;;;-2.02;100.00;98669.22;5049269;28;1270;-69
2024/01/13 08:31:26;;;;;;;;;;;-1.00;99.90;;;-1.79;100.00;98667.25;5050763;28;3806;-68
2024/01/13 08:34:06;;;;;;;;;;;-0.90;99.90;;;-1.58;100.00;98659.25;5048543;28;1516;-67
2024/01/13 08:36:33;;;;;;;;;;;-0.80;99.90;;;-1.76;100.00;98654.59;5029971;28;1160;-68
2024/01/13 08:39:00;;;;;;;;;;;-0.90;99.90;;;-1.88;100.00;98655.16;5049673;28;1254;-68
2024/01/13 08:41:27;;;;;;;;;;;-0.90;99.90;;;-1.58;100.00;98664.34;5048335;28;1211;-69
2024/01/13 08:44:01;;;;;;;;;;;-0.90;99.90;;;-1.75;100.00;98666.50;5048816;28;1343;-69
2024/01/13 08:46:28;;;;;;;;;;;-0.80;99.90;;;-1.77;100.00;98663.91;5030825;28;2056;-68
2024/01/13 08:48:55;;;;;;;;;;;-0.80;99.90;;;-1.78;100.00;98668.94;5047660;28;1286;-68
2024/01/13 08:51:23;;;;;;;;;;;-0.90;99.90;;;-2.00;100.00;98665.03;5050142;28;1164;-69
2024/01/13 08:54:04;;;;;;;;;;;-1.00;99.90;;;-1.97;100.00;98663.41;5048253;28;1967;-69
2024/01/13 08:56:35;;;;;;;;;;;-1.00;99.90;;;-2.07;100.00;98669.13;5043139;28;1215;-69
2024/01/13 08:59:05;;;;;;;;;;;-1.00;99.90;;;-1.83;100.00;98665.44;5046261;28;1963;-69
2024/01/13 09:01:32;;;;;;;;;;;-1.10;99.90;;;-1.75;100.00;98661.41;5029567;28;1472;-69
2024/01/13 09:04:06;;;;;;;;;;;-1.00;99.90;;;-1.84;100.00;98656.09;5051824;28;1982;-68
2024/01/13 09:06:33;;;;;;;;;;;-1.00;99.90;;;-1.75;100.00;98647.00;5058310;28;1227;-69
2024/01/13 09:09:01;;;;;;;;;;;-1.00;99.90;;;-1.87;100.00;98644.16;5055361;28;1377;-69
2024/01/13 09:11:28;;;;;;;;;;;-1.00;99.90;;;-1.98;100.00;98626.09;5036319;28;1200;-69
2024/01/13 09:14:09;;;;;;;;;;;-1.10;99.90;;;-1.84;100.00;98635.75;5034693;28;3136;-68
2024/01/13 09:16:36;;;;;;;;;;;-1.10;99.90;;;-1.76;100.00;98645.25;5036804;28;1203;-68
2024/01/13 09:19:03;;;;;;;;;;;-1.00;99.90;;;-1.72;100.00;98641.97;5055405;28;1337;-69
2024/01/13 09:21:30;;;;;;;;;;;-1.00;99.90;;;-1.58;100.00;98621.91;5036917;28;1284;-69
2024/01/13 09:24:07;;;;;;;;;;;-1.00;99.90;;;-1.72;100.00;98619.06;5053812;28;1327;-70
2024/01/13 09:26:42;;;;;;;;;;;-0.90;99.90;;;-1.59;100.00;98611.72;5052924;28;1346;-69
2024/01/13 09:29:16;;;;;;;;;;;-0.70;99.90;;;-1.62;100.00;98621.81;5033805;28;1267;-68
2024/01/13 09:31:47;;;;;;;;;;;-0.60;99.90;;;-1.49;100.00;98631.44;5037399;28;1735;-68
2024/01/13 09:34:15;;;;;;;;;;;-0.50;99.90;;;-1.71;100.00;98630.09;5055060;28;1437;-67
2024/01/13 09:36:44;;;;;;;;;;;-0.70;99.90;;;-1.62;100.00;98632.88;5040281;28;1266;-68
2024/01/13 09:39:18;;;;;;;;;;;-0.90;99.90;;;-1.64;100.00;98642.16;5054718;28;2107;-69
2024/01/13 09:41:46;;;;;;;;;;;-0.90;99.90;;;-1.68;100.00;98617.44;5033806;28;2746;-68
2024/01/13 09:44:26;;;;;;;;;;;-0.80;99.90;;;-1.81;100.00;98625.63;5052760;28;2615;-68
2024/01/13 09:46:59;;;;;;;;;;;-0.90;99.90;;;-1.98;100.00;98620.16;5034304;28;1208;-69
2024/01/13 09:49:29;;;;;;;;;;;-1.00;99.90;;;-2.00;100.00;98625.19;5051348;28;1461;-69
2024/01/13 09:51:58;;;;;;;;;;;-1.00;99.90;;;-1.82;100.00;98634.09;5035007;28;1971;-66
2024/01/13 09:54:25;;;;;;;;;;;-1.00;99.90;;;-1.72;100.00;98613.97;5050760;28;1738;-68
2024/01/13 09:56:54;;;;;;;;;;;-1.00;99.90;;;-1.75;100.00;98606.28;5036473;28;1395;-69
2024/01/13 09:59:22;;;;;;;;;;;-1.20;99.90;;;-1.91;100.00;98614.38;5034699;28;3059;-68
2024/01/13 10:01:51;;;;;;;;;;;-1.10;99.90;;;-1.78;100.00;98597.69;5053979;28;1502;-69
2024/01/13 10:04:18;;;;;;;;;;;-1.00;99.90;;;-1.66;100.00;98594.59;5054037;28;1384;-69
2024/01/13 10:06:49;;;;;;;;;;;-0.90;99.90;;;-1.63;100.00;98603.13;5052283;28;1432;-69
2024/01/13 10:09:17;;;;;;;;;;;-0.80;99.90;;;-1.82;100.00;98617.13;5058045;28;1491;-68
2024/01/13 10:12:02;;;;;;;;;;;-0.80;99.90;;;-2.01;100.00;98608.19;5035962;28;1983;-68
2024/01/13 10:14:29;;;;;;;;;;;-0.90;99.90;;;-1.75;100.00;98613.06;5033407;28;1415;-68
2024/01/13 10:17:00;;;;;;;;;;;-0.90;99.90;;;-1.83;100.00;98606.91;5052406;28;1231;-68
2024/01/13 10:19:27;;;;;;;;;;;-0.90;99.90;;;-1.87;100.00;98587.31;5054144;28;1492;-68
2024/01/13 10:21:56;;;;;;;;;;;-1.00;99.90;;;-2.06;100.00;98580.94;5052446;28;1332;-68
2024/01/13 10:24:23;;;;;;;;;;;-0.90;99.90;;;-1.88;100.00;98577.97;5053453;28;1540;-67
2024/01/13 10:26:50;;;;;;;;;;;-1.00;99.90;;;-1.93;100.00;98575.31;5051198;28;1924;-68
2024/01/13 10:29:19;;;;;;;;;;;-1.00;99.90;;;-1.84;100.00;98574.66;5048361;28;1354;-67
2024/01/13 10:31:53;;;;;;;;;;;-1.00;99.90;;;-2.06;100.00;98555.50;5053973;28;1339;-68
2024/01/13 10:34:20;;;;;;;;;;;-0.90;99.90;;;-1.89;100.00;98546.56;5026210;28;1953;-68
2024/01/13 10:36:48;;;;;;;;;;;-1.00;99.90;;;-1.93;100.00;98548.19;5019888;28;1540;-68
2024/01/13 10:39:15;;;;;;;;;;;-1.00;99.90;;;-1.92;100.00;98551.56;5026733;28;1409;-67
2024/01/13 10:41:43;;;;;;;;;;;-1.00;99.90;;;-2.14;100.00;98535.84;5042332;28;3150;-68
2024/01/13 10:44:12;;;;;;;;;;;-1.00;99.90;;;-2.18;100.00;98528.94;5046460;28;1620;-66
2024/01/13 10:46:43;;;;;;;;;;;-1.00;99.90;;;-2.12;100.00;98539.28;5021049;28;1646;-68
2024/01/13 10:49:13;;;;;;;;;;;-1.00;99.90;;;-2.30;100.00;98556.66;5025260;28;1435;-68
2024/01/13 10:51:49;;;;;;;;;;;-1.10;99.90;;;-2.13;100.00;98564.66;5023195;28;2166;-68
2024/01/13 10:54:16;;;;;;;;;;;-1.10;99.90;;;-1.86;100.00;98563.59;5018923;28;2635;-66
2024/01/13 10:56:44;;;;;;;;;;;-1.10;99.90;;;-2.00;100.00;98571.75;5019082;28;1499;-67
2024/01/13 10:59:11;;;;;;;;;;;-1.10;99.90;;;-1.98;100.00;98531.97;5039316;28;1234;-68
2024/01/13 11:01:38;;;;;;;;;;;-1.20;99.90;;;-1.98;100.00;98511.59;5023442;28;1196;-69
2024/01/13 11:04:06;;;;;;;;;;;-1.20;99.90;;;-2.04;100.00;98524.19;5021914;28;1510;-68
2024/01/13 11:06:33;;;;;;;;;;;-1.20;99.90;;;-2.01;100.00;98510.66;5042142;28;1945;-68
2024/01/13 11:09:02;;;;;;;;;;;-1.20;99.90;;;-2.18;100.00;98492.50;5041306;28;1498;-67
2024/01/13 11:11:33;;;;;;;;;;;-1.20;99.90;;;-2.33;100.00;98505.69;5023397;28;1375;-68
2024/01/13 11:14:08;;;;;;;;;;;-1.20;99.90;;;-2.30;100.00;98518.50;5006625;28;2020;-66
2024/01/13 11:16:37;;;;;;;;;;;-1.20;99.90;;;-2.11;100.00;98538.44;5022018;28;1298;-66
2024/01/13 11:19:06;;;;;;;;;;;-1.20;99.90;;;-2.33;100.00;98536.22;5021356;28;1639;-67
2024/01/13 11:21:34;;;;;;;;;;;-1.10;99.90;;;-2.23;100.00;98517.81;5036623;28;1527;-66